createdAt,value
2016-06-24T09:46:33.080Z,1004.61
2016-06-24T10:01:28.316Z,1005.34
2016-06-24T10:16:28.360Z,1005.39
2016-06-24T10:31:26.257Z,1005.99
2016-06-24T10:46:26.278Z,1005.66
2016-06-24T11:01:30.395Z,1005.48
2016-06-24T11:16:26.878Z,1005.44
2016-06-24T11:31:28.389Z,1005.65
2016-06-24T11:46:30.516Z,1004.65
2016-06-24T12:01:26.258Z,1004.81
2016-06-24T12:16:26.255Z,1004.4
2016-06-24T12:31:26.261Z,1004.09
2016-06-24T12:46:28.269Z,1004.15
2016-06-24T13:01:26.302Z,1004.17
2016-06-24T13:16:28.413Z,1004.18
2016-06-24T13:31:26.266Z,1004.22
2016-06-24T13:46:32.391Z,1004.35
2016-06-24T14:01:32.626Z,1004.31
2016-06-24T14:16:32.490Z,1004.16
2016-06-24T14:31:28.275Z,1004.7
2016-06-24T14:46:32.487Z,1004.58
2016-06-24T15:01:28.329Z,1005.13
2016-06-24T15:16:30.529Z,1005.51
2016-06-24T15:31:28.294Z,1005.27
2016-06-24T15:46:28.283Z,1004.4
2016-06-24T16:01:26.270Z,1004.26
2016-06-24T16:16:26.290Z,1004.18
2016-06-24T16:31:26.279Z,1004.91
2016-06-24T16:46:26.330Z,1005.09
2016-06-24T17:01:26.302Z,1004.65
2016-06-24T17:16:28.295Z,1004.7
2016-06-24T17:31:28.329Z,1004.53
2016-06-24T17:46:26.334Z,1004.56
2016-06-24T18:01:26.280Z,1004.64
2016-06-24T18:16:32.599Z,1004.61
2016-06-24T18:31:36.512Z,1004.3
2016-06-24T18:46:28.471Z,1004.19
2016-06-24T19:01:28.392Z,1003.95
2016-06-24T19:16:28.411Z,1004.19
2016-06-24T19:31:26.298Z,1004.13
2016-06-24T19:46:26.290Z,1004.62
2016-06-24T20:01:26.318Z,1004.64
2016-06-24T20:16:28.314Z,1004.4
2016-06-24T20:31:26.296Z,1004.27
2016-06-24T20:46:26.301Z,1004.33
2016-06-24T21:01:26.330Z,1004.56
2016-06-24T21:16:30.394Z,1004.59
2016-06-24T21:31:30.497Z,1004.6
2016-06-24T21:46:28.433Z,1004.7
2016-06-24T22:01:28.376Z,1004.88
2016-06-24T22:16:28.357Z,1005.06
2016-06-24T22:31:26.306Z,1004.91
2016-06-24T22:46:28.407Z,1005.09
2016-06-24T23:01:28.422Z,1005.2
2016-06-24T23:16:28.365Z,1005.05
2016-06-24T23:31:32.623Z,1005.11
2016-06-24T23:46:32.621Z,1005.14
